createdAt,value
2023-04-19T00:02:08.088Z,11.13
2023-04-19T00:04:34.616Z,11.18
2023-04-19T00:07:01.036Z,11.21
2023-04-19T00:09:27.350Z,10.93
2023-04-19T00:11:53.655Z,11.73
2023-04-19T00:14:19.984Z,11.88
2023-04-19T00:16:46.380Z,11.51
2023-04-19T00:19:12.719Z,11.88
2023-04-19T00:21:39.041Z,11.22
2023-04-19T00:24:05.350Z,11.36
2023-04-19T00:26:31.681Z,11.72
2023-04-19T00:28:58.011Z,11.10
2023-04-19T00:31:24.405Z,11.34
2023-04-19T00:33:50.887Z,11.67
2023-04-19T00:36:17.197Z,11.61
2023-04-19T00:38:43.502Z,11.75
2023-04-19T00:41:09.827Z,11.54
2023-04-19T00:43:36.149Z,12.01
2023-04-19T00:46:02.552Z,11.84
2023-04-19T00:48:28.904Z,11.37
2023-04-19T00:50:55.239Z,11.26
2023-04-19T00:53:21.554Z,11.20
2023-04-19T00:55:47.853Z,11.13
2023-04-19T00:58:14.176Z,11.97
2023-04-19T01:00:40.487Z,12.39
2023-04-19T01:03:06.947Z,12.05
2023-04-19T01:05:33.382Z,11.45
2023-04-19T01:07:59.690Z,11.75
2023-04-19T01:10:26.012Z,11.69
2023-04-19T01:12:52.332Z,11.27
2023-04-19T01:15:18.654Z,11.38
2023-04-19T01:17:44.988Z,12.02
2023-04-19T01:20:11.364Z,12.11
2023-04-19T01:22:37.741Z,12.11
2023-04-19T01:25:04.101Z,11.96
2023-04-19T01:27:30.429Z,11.87
2023-04-19T01:29:56.756Z,12.58
2023-04-19T01:32:23.117Z,12.72
2023-04-19T01:34:49.475Z,11.58
2023-04-19T01:37:15.794Z,11.99
2023-04-19T01:39:42.105Z,12.82
2023-04-19T01:42:08.414Z,12.32
2023-04-19T01:44:34.721Z,11.95
2023-04-19T01:47:01.069Z,12.47
2023-04-19T01:49:27.394Z,12.48
2023-04-19T01:51:53.704Z,11.40
2023-04-19T01:54:20.034Z,12.09
2023-04-19T01:56:46.357Z,11.72
2023-04-19T01:59:12.692Z,13.01
2023-04-19T02:01:39.017Z,13.19
2023-04-19T02:04:05.514Z,12.43
2023-04-19T02:06:31.985Z,12.45
2023-04-19T02:08:58.318Z,12.88
2023-04-19T02:11:24.695Z,12.56
2023-04-19T02:13:51.023Z,12.95
2023-04-19T02:16:17.391Z,13.35
2023-04-19T02:18:43.712Z,13.20
2023-04-19T02:21:10.048Z,13.27
2023-04-19T02:23:36.363Z,13.57
2023-04-19T02:26:02.684Z,13.18
2023-04-19T02:28:28.988Z,13.69
2023-04-19T02:30:55.304Z,13.38
2023-04-19T02:33:21.614Z,12.57
2023-04-19T02:35:47.927Z,13.41
2023-04-19T02:38:14.252Z,13.01
2023-04-19T02:40:40.579Z,13.27
2023-04-19T02:43:06.893Z,14.18
2023-04-19T02:45:33.203Z,13.17
2023-04-19T02:47:59.598Z,13.87
2023-04-19T02:50:25.942Z,14.22
2023-04-19T02:52:52.349Z,13.86
2023-04-19T02:55:18.678Z,13.91
2023-04-19T02:57:45.008Z,13.81
2023-04-19T03:00:11.315Z,13.93
2023-04-19T03:02:37.711Z,14.77
2023-04-19T03:05:04.118Z,15.18
2023-04-19T03:07:30.441Z,14.43
2023-04-19T03:09:56.753Z,13.87
2023-04-19T03:12:23.067Z,14.20
2023-04-19T03:14:49.412Z,13.64
2023-04-19T03:17:15.732Z,13.82
2023-04-19T03:19:42.067Z,13.73
2023-04-19T03:22:08.381Z,14.23
2023-04-19T03:24:37.647Z,13.69
2023-04-19T03:27:04.377Z,15.09
2023-04-19T03:29:30.715Z,14.77
2023-04-19T03:31:57.046Z,14.31
2023-04-19T03:34:23.368Z,14.73
2023-04-19T03:36:49.685Z,14.85
2023-04-19T03:39:16.019Z,14.69
2023-04-19T03:41:42.323Z,15.08
2023-04-19T03:44:08.657Z,15.43
2023-04-19T03:46:35.057Z,14.81
2023-04-19T03:49:01.403Z,15.33
2023-04-19T03:51:27.751Z,15.15
2023-04-19T03:53:54.104Z,14.48
2023-04-19T03:56:20.432Z,13.72
2023-04-19T03:58:46.810Z,14.14
2023-04-19T04:01:13.148Z,14.67
2023-04-19T04:03:39.619Z,14.53
2023-04-19T04:06:06.026Z,14.92
2023-04-19T04:08:32.338Z,13.99
2023-04-19T04:10:58.658Z,14.21
2023-04-19T04:13:24.984Z,14.98
2023-04-19T04:15:51.358Z,14.86
2023-04-19T04:18:17.700Z,15.12
2023-04-19T04:20:44.029Z,14.96
2023-04-19T04:23:10.369Z,14.36
2023-04-19T04:25:36.715Z,15.10
2023-04-19T04:28:03.057Z,15.11
2023-04-19T04:30:29.393Z,14.33
2023-04-19T04:32:55.759Z,15.21
2023-04-19T04:35:22.091Z,15.42
2023-04-19T04:37:48.426Z,15.27
2023-04-19T04:40:14.739Z,15.77
2023-04-19T04:42:41.077Z,15.00
2023-04-19T04:45:07.386Z,14.90
2023-04-19T04:47:33.722Z,15.23
2023-04-19T04:50:00.066Z,15.76
2023-04-19T04:52:26.375Z,14.52
2023-04-19T04:54:52.710Z,15.14
2023-04-19T04:57:19.032Z,14.88
2023-04-19T04:59:45.357Z,15.77
2023-04-19T05:02:11.737Z,16.38
2023-04-19T05:04:38.093Z,15.67
2023-04-19T05:07:04.457Z,15.50
2023-04-19T05:09:30.774Z,14.90
2023-04-19T05:11:57.088Z,14.84
2023-04-19T05:14:23.434Z,15.08
2023-04-19T05:16:49.826Z,14.96
2023-04-19T05:19:16.221Z,14.76
2023-04-19T05:21:42.535Z,15.11
2023-04-19T05:24:08.855Z,15.25
2023-04-19T05:26:35.173Z,16.04
2023-04-19T05:29:01.545Z,15.62
2023-04-19T05:31:27.920Z,16.14
2023-04-19T05:33:54.270Z,16.37
2023-04-19T05:36:20.637Z,16.03
2023-04-19T05:38:46.972Z,15.79
2023-04-19T05:41:13.286Z,15.17
2023-04-19T05:43:39.593Z,15.68
2023-04-19T05:46:05.935Z,15.93
2023-04-19T05:48:32.291Z,14.55
2023-04-19T05:50:58.611Z,14.44
2023-04-19T05:53:24.937Z,15.50
2023-04-19T05:55:51.257Z,15.90
2023-04-19T05:58:17.591Z,15.26
2023-04-19T06:00:43.960Z,15.17
2023-04-19T06:03:10.491Z,14.39
2023-04-19T06:05:37.002Z,14.54
2023-04-19T06:08:03.623Z,14.87
2023-04-19T06:10:40.251Z,14.38
2023-04-19T06:13:07.451Z,15.52
2023-04-19T06:15:33.756Z,14.25
2023-04-19T06:18:00.146Z,15.28
2023-04-19T06:20:26.527Z,15.53
2023-04-19T06:22:52.875Z,15.94
2023-04-19T06:25:19.212Z,15.60
2023-04-19T06:27:45.518Z,15.65
2023-04-19T06:30:11.841Z,16.25
2023-04-19T06:32:38.258Z,14.91
2023-04-19T06:35:04.597Z,15.86
2023-04-19T06:37:30.915Z,15.70
2023-04-19T06:39:57.381Z,16.04
2023-04-19T06:42:23.717Z,16.22
2023-04-19T06:44:50.073Z,15.25
2023-04-19T06:47:16.399Z,15.53
2023-04-19T06:49:42.717Z,15.48
2023-04-19T06:52:09.036Z,16.24
2023-04-19T06:54:35.356Z,16.67
2023-04-19T06:57:01.681Z,15.15
2023-04-19T06:59:27.989Z,16.21
2023-04-19T07:01:54.427Z,14.92
2023-04-19T07:04:21.287Z,16.09
2023-04-19T07:06:47.976Z,16.26
2023-04-19T07:09:14.317Z,16.39
2023-04-19T07:11:40.663Z,16.09
2023-04-19T07:14:07.004Z,16.49
2023-04-19T07:16:33.538Z,16.18
2023-04-19T07:18:59.916Z,16.96
2023-04-19T07:21:26.248Z,16.64
2023-04-19T07:23:52.580Z,16.64
2023-04-19T07:26:18.916Z,15.87
2023-04-19T07:28:45.235Z,16.16
2023-04-19T07:31:11.546Z,16.26
2023-04-19T07:33:37.873Z,16.14
2023-04-19T07:36:04.192Z,15.80
2023-04-19T07:38:30.512Z,16.04
2023-04-19T07:40:56.867Z,15.23
2023-04-19T07:43:23.206Z,16.50
2023-04-19T07:45:49.529Z,15.90
2023-04-19T07:48:15.845Z,16.80
2023-04-19T07:50:42.155Z,15.69
2023-04-19T07:53:08.495Z,16.12
2023-04-19T07:55:34.828Z,16.58
2023-04-19T07:58:01.163Z,17.30
2023-04-19T08:00:27.485Z,16.02
2023-04-19T08:02:53.920Z,16.36
2023-04-19T08:05:20.433Z,15.15
2023-04-19T08:07:46.911Z,16.37
2023-04-19T08:10:13.248Z,16.33
2023-04-19T08:12:47.358Z,15.43
2023-04-19T08:17:46.957Z,16.84
2023-04-19T08:20:13.376Z,16.64
2023-04-19T08:22:39.764Z,17.02
2023-04-19T08:25:06.102Z,16.44
2023-04-19T08:27:32.428Z,16.50
2023-04-19T08:29:58.782Z,16.61
2023-04-19T08:32:25.149Z,17.18
2023-04-19T08:34:51.518Z,16.40
2023-04-19T08:37:17.844Z,15.21
2023-04-19T08:39:44.215Z,15.94
2023-04-19T08:42:21.168Z,16.06
2023-04-19T08:47:32.102Z,17.13
2023-04-19T08:50:10.953Z,16.82
2023-04-19T08:52:54.218Z,16.22
2023-04-19T08:55:23.612Z,16.04
2023-04-19T08:57:49.946Z,16.89
2023-04-19T09:00:16.288Z,17.24
2023-04-19T09:02:42.773Z,42.35
2023-04-19T09:05:09.282Z,57.41
2023-04-19T09:07:35.673Z,27.39
2023-04-19T09:10:03.670Z,20.33
2023-04-19T09:12:30.582Z,16.52
2023-04-19T09:17:26.188Z,19.71
2023-04-19T09:19:52.539Z,17.75
2023-04-19T09:22:18.928Z,34.38
2023-04-19T09:27:14.543Z,27.70
2023-04-19T09:29:40.869Z,27.27
2023-04-19T09:32:07.265Z,23.58
2023-04-19T09:34:33.698Z,20.09
2023-04-19T09:37:08.967Z,21.32
2023-04-19T09:39:39.689Z,22.02
2023-04-19T09:42:06.010Z,21.80
2023-04-19T09:44:58.768Z,18.67
2023-04-19T09:47:18.643Z,16.37
2023-04-19T09:49:48.826Z,15.86
2023-04-19T09:52:16.065Z,16.49
2023-04-19T09:54:42.416Z,16.18
2023-04-19T09:57:08.930Z,16.05
2023-04-19T09:59:35.256Z,17.03
2023-04-19T10:02:01.697Z,14.89
2023-04-19T10:04:38.200Z,15.63
2023-04-19T10:07:29.241Z,16.36
2023-04-19T10:09:59.906Z,16.56
2023-04-19T10:12:52.348Z,15.75
2023-04-19T10:15:17.930Z,14.34
2023-04-19T10:17:44.299Z,13.93
2023-04-19T10:20:10.736Z,14.60
2023-04-19T10:22:37.086Z,13.27
2023-04-19T10:25:03.429Z,14.41
2023-04-19T10:27:30.932Z,13.33
2023-04-19T10:29:57.257Z,12.92
2023-04-19T10:32:23.601Z,12.66
2023-04-19T10:34:49.915Z,12.74
2023-04-19T10:37:16.327Z,12.65
2023-04-19T10:39:42.659Z,12.81
2023-04-19T10:42:08.979Z,11.97
2023-04-19T10:44:35.282Z,13.20
2023-04-19T10:47:01.590Z,12.14
2023-04-19T10:49:27.916Z,12.74
2023-04-19T10:51:54.253Z,13.08
2023-04-19T10:54:20.615Z,12.45
2023-04-19T10:56:46.958Z,11.44
2023-04-19T10:59:13.389Z,11.74
2023-04-19T11:01:40.395Z,12.61
2023-04-19T11:04:07.244Z,13.38
2023-04-19T11:06:33.700Z,12.73
2023-04-19T11:09:00.080Z,12.43
2023-04-19T11:11:26.453Z,12.93
2023-04-19T11:13:52.781Z,13.46
2023-04-19T11:16:19.803Z,14.34
2023-04-19T11:18:47.665Z,13.65
2023-04-19T11:21:13.989Z,13.41
2023-04-19T11:23:40.327Z,13.07
2023-04-19T11:26:06.667Z,13.09
2023-04-19T11:28:33.098Z,13.18
2023-04-19T11:30:59.462Z,12.90
2023-04-19T11:33:25.773Z,13.13
2023-04-19T11:35:52.085Z,13.59
2023-04-19T11:38:18.405Z,12.82
2023-04-19T11:40:44.740Z,13.04
2023-04-19T11:43:11.074Z,12.83
2023-04-19T11:45:39.627Z,13.21
2023-04-19T11:48:06.685Z,14.12
2023-04-19T11:50:33.092Z,14.34
2023-04-19T11:52:59.410Z,13.64
2023-04-19T11:55:25.815Z,13.74
2023-04-19T11:57:52.153Z,13.97
2023-04-19T12:00:18.492Z,13.56
2023-04-19T12:02:44.984Z,14.18
2023-04-19T12:05:11.753Z,14.66
2023-04-19T12:07:38.158Z,14.89
2023-04-19T12:10:04.469Z,14.14
2023-04-19T12:12:30.804Z,14.37
2023-04-19T12:14:57.118Z,14.01
2023-04-19T12:17:23.454Z,14.85
2023-04-19T12:19:49.806Z,14.78
2023-04-19T12:22:16.142Z,14.52
2023-04-19T12:24:42.457Z,14.64
2023-04-19T12:27:08.782Z,15.07
2023-04-19T12:29:37.138Z,14.88
2023-04-19T12:32:03.497Z,14.52
2023-04-19T12:34:29.828Z,14.78
2023-04-19T12:36:56.187Z,14.20
2023-04-19T12:39:22.525Z,12.72
2023-04-19T12:41:48.890Z,12.55
2023-04-19T12:44:15.217Z,12.21
2023-04-19T12:46:41.561Z,11.13
2023-04-19T12:49:07.877Z,11.86
2023-04-19T12:51:34.183Z,12.69
2023-04-19T12:54:00.574Z,12.81
2023-04-19T12:56:26.900Z,13.02
2023-04-19T12:58:53.248Z,13.67
2023-04-19T13:01:19.610Z,13.53
2023-04-19T13:03:46.109Z,13.46
2023-04-19T13:06:12.546Z,14.00
2023-04-19T13:08:45.359Z,14.35
2023-04-19T13:11:13.620Z,14.08
2023-04-19T13:13:39.937Z,14.84
2023-04-19T13:16:06.277Z,13.96
2023-04-19T13:18:32.813Z,13.37
2023-04-19T13:20:59.184Z,13.50
2023-04-19T13:23:25.513Z,14.32
2023-04-19T13:25:51.871Z,15.25
2023-04-19T13:28:18.205Z,15.73
2023-04-19T13:30:44.545Z,15.23
2023-04-19T13:33:10.913Z,14.88
2023-04-19T13:35:37.370Z,15.47
2023-04-19T13:38:03.707Z,15.42
2023-04-19T13:40:30.023Z,14.41
2023-04-19T13:42:56.360Z,14.51
2023-04-19T13:45:22.706Z,15.56
2023-04-19T13:47:49.055Z,15.39
2023-04-19T13:50:15.394Z,14.94
2023-04-19T13:52:41.733Z,15.42
2023-04-19T13:55:08.059Z,14.43
2023-04-19T13:57:34.374Z,15.26
2023-04-19T14:00:00.687Z,15.34
2023-04-19T14:02:27.117Z,15.49
2023-04-19T14:04:53.549Z,15.64
2023-04-19T14:07:19.885Z,15.34
2023-04-19T14:09:46.203Z,15.18
2023-04-19T14:12:12.552Z,15.04
2023-04-19T14:14:38.886Z,14.95
2023-04-19T14:17:05.192Z,15.27
2023-04-19T14:19:31.498Z,15.45
2023-04-19T14:21:57.824Z,14.40
2023-04-19T14:24:24.165Z,15.36
2023-04-19T14:27:06.993Z,14.08
2023-04-19T14:29:35.833Z,14.70
2023-04-19T14:32:16.654Z,14.97
2023-04-19T14:34:48.484Z,14.58
2023-04-19T14:37:14.814Z,14.77
2023-04-19T14:39:41.160Z,14.53
2023-04-19T14:42:07.486Z,14.06
2023-04-19T14:44:33.863Z,14.13
2023-04-19T14:47:00.190Z,13.69
2023-04-19T14:49:26.513Z,13.67
2023-04-19T14:51:52.842Z,13.62
2023-04-19T14:54:19.178Z,13.73
2023-04-19T14:56:45.583Z,14.24
2023-04-19T14:59:11.900Z,14.66
2023-04-19T15:01:38.299Z,14.45
2023-04-19T15:04:04.945Z,14.12
2023-04-19T15:06:31.412Z,13.64
2023-04-19T15:08:57.742Z,14.04
2023-04-19T15:11:24.064Z,13.59
2023-04-19T15:13:50.395Z,13.35
2023-04-19T15:16:16.763Z,14.14
2023-04-19T15:18:43.097Z,12.98
2023-04-19T15:21:09.435Z,13.94
2023-04-19T15:23:35.761Z,14.17
2023-04-19T15:26:02.083Z,13.51
2023-04-19T15:28:28.386Z,13.23
2023-04-19T15:30:54.754Z,13.79
2023-04-19T15:33:21.109Z,13.18
2023-04-19T15:35:47.422Z,12.98
2023-04-19T15:38:13.754Z,13.76
2023-04-19T15:40:40.060Z,13.71
2023-04-19T15:43:06.385Z,14.72
2023-04-19T15:45:32.705Z,13.35
2023-04-19T15:47:59.067Z,13.32
2023-04-19T15:50:25.450Z,13.65
2023-04-19T15:52:51.772Z,12.83
2023-04-19T15:55:18.104Z,12.75
2023-04-19T15:57:44.466Z,12.62
2023-04-19T16:00:10.784Z,13.13
2023-04-19T16:02:37.225Z,12.57
2023-04-19T16:05:03.716Z,13.34
2023-04-19T16:07:30.156Z,12.58
2023-04-19T16:09:56.476Z,12.73
2023-04-19T16:12:22.791Z,12.63
2023-04-19T16:14:49.095Z,12.02
2023-04-19T16:17:15.431Z,11.07
2023-04-19T16:19:41.760Z,11.41
2023-04-19T16:22:08.074Z,10.19
2023-04-19T16:24:34.395Z,9.55
2023-04-19T16:27:00.728Z,10.03
2023-04-19T16:29:27.074Z,10.18
2023-04-19T16:31:53.418Z,9.92
2023-04-19T16:34:19.788Z,16.83
2023-04-19T16:36:46.101Z,13.25
2023-04-19T16:39:12.406Z,10.11
2023-04-19T16:41:38.729Z,10.25
2023-04-19T16:44:05.039Z,10.00
2023-04-19T16:46:31.493Z,10.14
2023-04-19T16:48:57.876Z,10.37
2023-04-19T16:51:24.192Z,9.97
2023-04-19T16:53:50.515Z,9.26
2023-04-19T16:56:16.857Z,9.97
2023-04-19T16:58:43.173Z,10.02
2023-04-19T17:01:09.574Z,9.81
2023-04-19T17:03:36.064Z,9.92
2023-04-19T17:06:02.565Z,9.81
2023-04-19T17:08:28.900Z,10.79
2023-04-19T17:10:55.228Z,9.69
2023-04-19T17:13:21.542Z,8.76
2023-04-19T17:15:47.878Z,8.96
2023-04-19T17:18:14.250Z,8.71
2023-04-19T17:20:40.637Z,8.04
2023-04-19T17:23:06.960Z,8.29
2023-04-19T17:25:33.299Z,8.19
2023-04-19T17:27:59.617Z,7.97
2023-04-19T17:30:25.936Z,7.89
2023-04-19T17:32:52.323Z,7.99
2023-04-19T17:35:18.702Z,8.08
2023-04-19T17:37:45.011Z,7.77
2023-04-19T17:40:11.331Z,7.46
2023-04-19T17:42:37.631Z,7.91
2023-04-19T17:45:04.077Z,8.45
2023-04-19T17:47:30.404Z,7.98
2023-04-19T17:49:56.726Z,7.79
2023-04-19T17:52:23.072Z,8.00
2023-04-19T17:54:49.392Z,8.25
2023-04-19T17:57:15.718Z,8.55
2023-04-19T17:59:42.038Z,8.49
2023-04-19T18:02:10.278Z,8.77
2023-04-19T18:04:37.202Z,9.11
2023-04-19T18:07:03.568Z,9.03
2023-04-19T18:09:29.886Z,8.79
2023-04-19T18:11:56.223Z,8.77
2023-04-19T18:14:22.521Z,8.99
2023-04-19T18:16:48.960Z,8.44
2023-04-19T18:19:15.596Z,8.38
2023-04-19T18:21:42.082Z,8.70
2023-04-19T18:24:08.417Z,8.68
2023-04-19T18:26:34.758Z,8.44
2023-04-19T18:29:01.100Z,8.63
2023-04-19T18:31:27.472Z,9.13
2023-04-19T18:33:53.816Z,8.96
2023-04-19T18:36:20.139Z,9.57
2023-04-19T18:38:46.444Z,8.86
2023-04-19T18:41:12.767Z,9.05
2023-04-19T18:43:39.115Z,8.83
2023-04-19T18:46:05.514Z,9.16
2023-04-19T18:48:31.913Z,9.16
2023-04-19T18:50:59.495Z,9.07
2023-04-19T18:53:26.056Z,8.31
2023-04-19T18:55:53.012Z,8.63
2023-04-19T18:58:19.375Z,8.86
2023-04-19T19:00:46.418Z,8.40
2023-04-19T19:03:37.947Z,8.41
2023-04-19T19:06:00.626Z,8.58
2023-04-19T19:08:27.086Z,8.33
2023-04-19T19:13:22.662Z,7.98
2023-04-19T19:15:49.075Z,8.15
2023-04-19T19:18:15.453Z,7.98
2023-04-19T19:20:41.802Z,8.52
2023-04-19T19:23:08.122Z,7.99
2023-04-19T19:25:34.448Z,8.56
2023-04-19T19:30:29.979Z,8.43
2023-04-19T19:32:56.350Z,8.32
2023-04-19T19:35:24.809Z,8.61
2023-04-19T19:37:51.468Z,8.48
2023-04-19T19:40:20.878Z,8.86
2023-04-19T19:42:49.000Z,8.50
2023-04-19T19:45:16.187Z,8.70
2023-04-19T19:47:45.887Z,8.74
2023-04-19T19:51:01.083Z,9.12
2023-04-19T19:53:01.096Z,9.11
2023-04-19T19:55:27.424Z,8.79
2023-04-19T20:00:43.775Z,8.91
2023-04-19T20:03:09.405Z,9.13
2023-04-19T20:05:35.940Z,8.55
2023-04-19T20:08:05.460Z,9.21
2023-04-19T20:10:32.156Z,8.90
2023-04-19T20:12:58.481Z,9.05
2023-04-19T20:15:24.845Z,8.85
2023-04-19T20:17:51.249Z,8.93
2023-04-19T20:20:17.605Z,8.77
2023-04-19T20:22:43.916Z,8.76
2023-04-19T20:25:10.253Z,8.43
2023-04-19T20:27:36.570Z,8.71
2023-04-19T20:30:02.882Z,8.76
2023-04-19T20:32:29.210Z,8.78
2023-04-19T20:34:55.517Z,8.59
2023-04-19T20:37:21.829Z,8.73
2023-04-19T20:39:48.168Z,8.90
2023-04-19T20:42:14.472Z,9.64
2023-04-19T20:44:40.794Z,9.29
2023-04-19T20:47:07.107Z,9.07
2023-04-19T20:49:33.434Z,9.37
2023-04-19T20:51:59.767Z,9.34
2023-04-19T20:54:26.074Z,9.55
2023-04-19T20:56:52.392Z,9.60
2023-04-19T20:59:18.904Z,9.92
2023-04-19T21:01:45.549Z,9.53
2023-04-19T21:04:12.087Z,9.68
2023-04-19T21:06:38.449Z,10.40
2023-04-19T21:09:04.783Z,10.07
2023-04-19T21:11:31.115Z,10.23
2023-04-19T21:13:57.440Z,10.32
2023-04-19T21:16:23.852Z,10.80
2023-04-19T21:18:50.253Z,11.28
2023-04-19T21:21:16.579Z,10.38
2023-04-19T21:23:42.936Z,10.30
2023-04-19T21:26:09.246Z,10.52
2023-04-19T21:28:35.588Z,10.59
2023-04-19T21:31:01.954Z,11.45
2023-04-19T21:33:28.300Z,10.69
2023-04-19T21:35:54.630Z,11.14
2023-04-19T21:38:20.966Z,10.93
2023-04-19T21:40:47.265Z,10.65
2023-04-19T21:43:13.617Z,10.92
2023-04-19T21:45:39.948Z,11.01
2023-04-19T21:48:06.362Z,12.00
2023-04-19T21:50:32.849Z,11.41
2023-04-19T21:52:59.241Z,11.68
2023-04-19T21:55:25.584Z,11.51
2023-04-19T21:57:51.926Z,11.17
2023-04-19T22:00:18.263Z,11.20
2023-04-19T22:02:44.682Z,11.77
2023-04-19T22:05:11.183Z,11.69
2023-04-19T22:07:37.494Z,12.17
2023-04-19T22:10:03.830Z,11.27
2023-04-19T22:12:30.140Z,11.47
2023-04-19T22:14:56.457Z,11.37
2023-04-19T22:17:22.885Z,11.61
2023-04-19T22:19:49.300Z,11.55
2023-04-19T22:22:15.628Z,11.29
2023-04-19T22:24:56.117Z,12.28
2023-04-19T22:27:23.606Z,12.21
2023-04-19T22:29:49.947Z,13.03
2023-04-19T22:32:16.318Z,12.23
2023-04-19T22:34:42.675Z,12.60
2023-04-19T22:37:08.992Z,12.82
2023-04-19T22:39:35.331Z,12.49
2023-04-19T22:42:01.656Z,13.77
2023-04-19T22:44:27.978Z,13.38
2023-04-19T22:46:54.284Z,13.15
2023-04-19T22:49:20.652Z,13.89
2023-04-19T22:51:46.986Z,14.49
2023-04-19T22:54:13.321Z,13.71
2023-04-19T22:56:39.655Z,12.09
2023-04-19T22:59:06.004Z,10.77
2023-04-19T23:01:32.345Z,9.70
2023-04-19T23:03:58.755Z,9.09
2023-04-19T23:06:25.092Z,8.11
2023-04-19T23:08:51.413Z,7.90
2023-04-19T23:11:17.733Z,7.81
2023-04-19T23:13:44.043Z,7.02
2023-04-19T23:16:10.377Z,7.16
2023-04-19T23:18:36.714Z,6.67
2023-04-19T23:21:03.050Z,6.77
2023-04-19T23:23:29.382Z,6.78
2023-04-19T23:25:55.692Z,6.71
2023-04-19T23:28:22.016Z,6.66
2023-04-19T23:30:48.324Z,7.12
2023-04-19T23:33:14.636Z,6.96
2023-04-19T23:35:40.959Z,6.67
2023-04-19T23:38:07.309Z,7.06
2023-04-19T23:40:33.605Z,7.42
2023-04-19T23:42:59.932Z,6.61
2023-04-19T23:45:26.263Z,7.02
2023-04-19T23:47:52.753Z,7.06
2023-04-19T23:50:19.186Z,6.84
2023-04-19T23:52:45.506Z,7.18
2023-04-19T23:55:11.812Z,6.85
2023-04-19T23:57:38.136Z,7.12
